createdAt,value
2018-08-30T06:06:19.790Z,3.00
2018-08-30T06:08:48.167Z,3.47
2018-08-30T06:11:16.624Z,4.20
2018-08-30T06:13:45.019Z,5.50
2018-08-30T06:16:13.453Z,5.33
2018-08-30T06:18:42.027Z,5.10
2018-08-30T06:21:11.363Z,4.97
2018-08-30T06:23:39.808Z,4.40
2018-08-30T06:26:08.288Z,4.57
2018-08-30T06:28:36.703Z,4.20
2018-08-30T06:31:06.031Z,4.07
2018-08-30T06:33:34.734Z,5.30
2018-08-30T06:36:03.424Z,4.43
2018-08-30T06:38:32.194Z,5.43
2018-08-30T06:41:01.803Z,5.03
2018-08-30T06:43:30.239Z,4.67
2018-08-30T06:45:58.898Z,4.40
2018-08-30T06:48:27.715Z,3.90
2018-08-30T06:50:56.215Z,4.63
2018-08-30T06:53:24.939Z,7.70
2018-08-30T06:55:53.569Z,4.63
2018-08-30T06:58:22.132Z,4.97
2018-08-30T07:00:50.527Z,6.47
2018-08-30T07:03:18.960Z,4.70
2018-08-30T07:05:47.335Z,4.80
2018-08-30T07:08:15.844Z,4.77
2018-08-30T07:10:44.439Z,3.60
2018-08-30T07:13:12.904Z,4.60
2018-08-30T07:15:41.383Z,4.30
2018-08-30T07:18:09.816Z,4.63
2018-08-30T07:20:38.214Z,4.70
2018-08-30T07:23:06.656Z,4.67
2018-08-30T07:25:35.179Z,5.60
2018-08-30T07:28:04.943Z,4.80
2018-08-30T07:30:39.323Z,4.17
2018-08-30T07:33:10.888Z,5.10
2018-08-30T07:35:41.431Z,5.00
2018-08-30T07:38:10.889Z,4.53
2018-08-30T07:40:41.823Z,4.03
2018-08-30T07:43:10.627Z,4.40
2018-08-30T07:45:41.875Z,3.70
2018-08-30T07:48:15.866Z,3.57
2018-08-30T07:50:45.723Z,3.30
2018-08-30T07:53:16.213Z,3.57
2018-08-30T07:55:52.298Z,4.00
2018-08-30T07:58:24.682Z,3.30
2018-08-30T08:00:53.254Z,3.20
2018-08-30T08:03:24.251Z,5.03
2018-08-30T08:05:57.402Z,3.77
2018-08-30T08:08:27.891Z,3.80
2018-08-30T08:10:58.680Z,3.30
2018-08-30T08:13:29.529Z,3.70
2018-08-30T08:15:59.657Z,3.67
2018-08-30T08:18:28.884Z,3.60
2018-08-30T08:20:59.195Z,3.73
2018-08-30T08:23:28.109Z,4.30
2018-08-30T08:25:58.438Z,3.80
2018-08-30T08:28:28.410Z,4.47
2018-08-30T08:30:58.734Z,3.63
2018-08-30T08:33:27.931Z,3.57
2018-08-30T08:35:58.167Z,4.23
2018-08-30T08:38:27.263Z,3.00
2018-08-30T08:40:56.847Z,3.50
2018-08-30T08:43:25.992Z,3.20
2018-08-30T08:45:56.694Z,3.60
2018-08-30T08:48:31.585Z,3.90
2018-08-30T08:51:00.988Z,5.20
2018-08-30T08:53:30.492Z,3.90
2018-08-30T08:56:03.340Z,3.37
2018-08-30T08:58:34.959Z,3.43
2018-08-30T09:01:06.712Z,3.30
2018-08-30T09:03:38.489Z,3.30
2018-08-30T09:06:10.115Z,3.40
2018-08-30T09:08:40.586Z,3.53
2018-08-30T09:11:09.909Z,3.30
2018-08-30T09:13:39.838Z,3.30
2018-08-30T09:16:09.202Z,3.20
2018-08-30T09:18:39.053Z,3.20
2018-08-30T09:21:09.076Z,3.20
2018-08-30T09:23:44.253Z,3.10
2018-08-30T09:26:13.677Z,3.27
2018-08-30T09:28:42.880Z,2.70
2018-08-30T09:31:13.071Z,3.17
2018-08-30T09:33:44.281Z,2.70
2018-08-30T09:36:16.176Z,3.13
2018-08-30T09:38:46.246Z,2.70
2018-08-30T09:41:16.048Z,3.13
2018-08-30T09:43:47.557Z,2.63
2018-08-30T09:46:16.888Z,3.00
2018-08-30T09:48:47.771Z,2.83
2018-08-30T09:51:17.953Z,3.00
2018-08-30T09:53:48.463Z,3.50
2018-08-30T09:56:17.529Z,2.90
2018-08-30T09:58:46.080Z,2.90
2018-08-30T10:02:24.375Z,2.77
2018-08-30T10:04:52.927Z,2.37
2018-08-30T10:07:22.861Z,3.10
2018-08-30T10:09:51.852Z,3.00
2018-08-30T10:12:21.696Z,2.90
2018-08-30T10:14:52.189Z,3.20
2018-08-30T10:17:20.730Z,3.00
2018-08-30T10:19:51.804Z,3.30
2018-08-30T10:22:20.931Z,3.43
2018-08-30T10:24:49.755Z,3.40
2018-08-30T10:27:19.044Z,3.37
2018-08-30T10:29:49.440Z,4.20
2018-08-30T10:32:18.752Z,3.90
2018-08-30T10:34:49.354Z,4.20
2018-08-30T10:37:20.242Z,4.30
2018-08-30T10:39:49.452Z,4.60
2018-08-30T10:42:23.561Z,3.80
2018-08-30T10:44:59.563Z,4.07
2018-08-30T10:47:29.783Z,4.07
2018-08-30T10:49:59.803Z,4.13
2018-08-30T10:52:29.516Z,3.90
2018-08-30T10:55:00.951Z,3.83
2018-08-30T10:57:31.614Z,4.63
2018-08-30T11:00:02.195Z,4.20
2018-08-30T11:02:32.693Z,4.40
2018-08-30T11:05:05.949Z,4.43
2018-08-30T11:07:35.134Z,5.30
2018-08-30T11:10:06.008Z,4.30
2018-08-30T11:12:36.219Z,4.80
2018-08-30T11:15:07.200Z,4.80
2018-08-30T11:17:35.689Z,4.80
2018-08-30T11:20:05.904Z,4.80
2018-08-30T11:22:36.364Z,4.67
2018-08-30T11:25:08.180Z,5.10
2018-08-30T11:27:39.092Z,5.40
2018-08-30T11:30:07.993Z,4.30
2018-08-30T11:32:39.687Z,4.30
2018-08-30T11:35:09.438Z,4.27
2018-08-30T11:37:37.987Z,4.60
2018-08-30T11:40:10.743Z,4.53
2018-08-30T11:42:41.415Z,4.77
2018-08-30T11:45:13.902Z,4.90
2018-08-30T11:47:44.236Z,4.80
2018-08-30T11:50:13.646Z,4.60
2018-08-30T11:52:43.507Z,4.67
2018-08-30T11:55:15.823Z,4.40
2018-08-30T11:57:46.840Z,4.70
2018-08-30T12:00:16.088Z,4.80
2018-08-30T12:02:47.936Z,4.67
2018-08-30T12:05:17.907Z,4.30
2018-08-30T12:07:47.771Z,5.80
2018-08-30T12:10:18.901Z,5.60
2018-08-30T12:12:48.205Z,6.20
2018-08-30T12:15:18.657Z,5.70
2018-08-30T12:17:48.312Z,5.77
2018-08-30T12:20:17.664Z,5.50
2018-08-30T12:22:46.118Z,5.80
2018-08-30T12:25:14.566Z,6.03
2018-08-30T12:27:43.467Z,6.37
2018-08-30T12:30:11.665Z,5.83
2018-08-30T12:32:39.828Z,6.10
2018-08-30T12:35:08.349Z,6.10
2018-08-30T12:37:36.884Z,6.63
2018-08-30T12:40:05.245Z,5.80
2018-08-30T12:42:34.211Z,5.40
2018-08-30T12:45:03.125Z,6.23
2018-08-30T12:47:33.718Z,6.07
2018-08-30T12:50:02.353Z,6.23
2018-08-30T12:52:32.322Z,6.20
2018-08-30T12:55:03.515Z,6.27
2018-08-30T12:57:33.057Z,6.33
2018-08-30T13:00:03.512Z,6.40
2018-08-30T13:02:32.309Z,5.70
2018-08-30T13:05:00.679Z,5.50
2018-08-30T13:07:28.741Z,5.50
2018-08-30T13:09:58.569Z,6.17
2018-08-30T13:12:28.416Z,6.80
2018-08-30T13:14:57.843Z,5.93
2018-08-30T13:17:31.117Z,6.30
2018-08-30T13:20:02.177Z,6.50
2018-08-30T13:22:30.913Z,7.70
2018-08-30T13:24:59.570Z,6.40
2018-08-30T13:27:27.512Z,6.30
2018-08-30T13:29:56.083Z,6.60
2018-08-30T13:32:24.756Z,7.30
2018-08-30T13:34:53.261Z,6.00
2018-08-30T13:37:23.650Z,6.40
2018-08-30T13:39:52.656Z,6.90
2018-08-30T13:42:21.975Z,6.23
2018-08-30T13:44:50.343Z,6.23
2018-08-30T13:47:21.015Z,6.60
2018-08-30T13:49:50.623Z,6.83
2018-08-30T13:52:20.367Z,6.23
2018-08-30T13:54:49.652Z,6.67
2018-08-30T13:57:20.044Z,6.30
2018-08-30T13:59:49.793Z,6.77
2018-08-30T14:02:19.756Z,6.03
2018-08-30T14:04:49.029Z,6.20
2018-08-30T14:07:17.926Z,6.57
2018-08-30T14:09:45.993Z,7.17
2018-08-30T14:12:14.773Z,6.77
2018-08-30T14:14:44.307Z,7.57
2018-08-30T14:17:12.837Z,6.60
2018-08-30T14:19:42.150Z,7.60
2018-08-30T14:22:11.392Z,7.57
2018-08-30T14:24:41.829Z,7.50
2018-08-30T14:27:10.005Z,7.10
2018-08-30T14:29:39.498Z,7.00
2018-08-30T14:32:08.833Z,7.73
2018-08-30T14:34:37.838Z,7.30
2018-08-30T14:37:06.819Z,7.40
2018-08-30T14:39:37.558Z,7.50
2018-08-30T14:42:07.747Z,7.07
2018-08-30T14:44:37.599Z,7.63
2018-08-30T14:47:06.736Z,7.07
2018-08-30T14:49:35.657Z,6.80
2018-08-30T14:52:04.396Z,7.73
2018-08-30T14:54:33.628Z,7.77
2018-08-30T14:57:02.684Z,8.07
2018-08-30T14:59:31.126Z,7.70
2018-08-30T15:02:00.516Z,7.63
2018-08-30T15:04:29.226Z,7.73
2018-08-30T15:06:57.823Z,8.00
2018-08-30T15:09:27.445Z,7.80
2018-08-30T15:11:56.023Z,7.47
2018-08-30T15:14:25.465Z,8.23
2018-08-30T15:16:55.574Z,7.10
2018-08-30T15:19:27.054Z,7.83
2018-08-30T15:21:56.171Z,8.00
2018-08-30T15:24:26.306Z,7.33
2018-08-30T15:26:55.482Z,8.03
2018-08-30T15:29:25.440Z,8.10
2018-08-30T15:31:55.345Z,8.13
2018-08-30T15:34:23.959Z,7.93
2018-08-30T15:36:53.612Z,7.60
2018-08-30T15:39:22.438Z,8.53
2018-08-30T15:41:52.823Z,8.10
2018-08-30T15:44:21.610Z,7.80
2018-08-30T15:46:54.912Z,7.87
2018-08-30T15:49:24.554Z,7.23
2018-08-30T15:51:54.440Z,8.10
2018-08-30T15:54:24.620Z,8.20
2018-08-30T15:56:54.328Z,8.80
2018-08-30T15:59:22.890Z,9.20
2018-08-30T16:01:51.720Z,8.90
2018-08-30T16:04:20.295Z,8.83
2018-08-30T16:06:49.318Z,8.70
2018-08-30T16:09:18.629Z,9.37
2018-08-30T16:11:47.334Z,9.30
2018-08-30T16:14:15.718Z,8.10
2018-08-30T16:16:45.489Z,8.57
2018-08-30T16:19:14.254Z,8.80
2018-08-30T16:21:43.655Z,8.13
2018-08-30T16:24:13.166Z,8.67
2018-08-30T16:26:41.793Z,8.37
2018-08-30T16:29:10.008Z,8.77
2018-08-30T16:31:45.464Z,9.37
2018-08-30T16:34:17.838Z,9.33
2018-08-30T16:36:46.638Z,9.80
2018-08-30T16:39:15.480Z,8.03
2018-08-30T16:41:58.454Z,7.80
2018-08-30T16:44:27.641Z,6.40
2018-08-30T16:46:55.811Z,6.83
2018-08-30T16:49:24.175Z,7.80
2018-08-30T16:51:53.232Z,7.27
2018-08-30T16:58:51.029Z,7.33
2018-08-30T17:01:20.451Z,6.30
2018-08-30T17:03:48.994Z,6.87
2018-08-30T17:06:17.680Z,7.47
2018-08-30T17:08:46.327Z,6.27
2018-08-30T17:28:51.401Z,7.33
2018-08-30T17:31:20.074Z,7.83
2018-08-30T17:33:48.791Z,7.70
2018-08-30T17:36:17.250Z,7.27
2018-08-30T17:38:45.784Z,8.03
2018-08-30T17:41:14.475Z,7.90
2018-08-30T17:43:43.229Z,7.67
2018-08-30T17:46:11.732Z,7.97
2018-08-30T17:48:40.293Z,8.43
2018-08-30T17:51:08.877Z,7.80
2018-08-30T17:53:37.438Z,8.20
2018-08-30T17:56:06.336Z,7.73
2018-08-30T17:58:34.902Z,8.77
2018-08-30T18:01:03.499Z,8.03
2018-08-30T18:03:32.276Z,8.97
2018-08-30T18:06:00.966Z,9.50
2018-08-30T18:08:44.156Z,9.37
2018-08-30T18:11:14.563Z,8.83
2018-08-30T18:25:21.617Z,8.23
2018-08-30T18:27:56.451Z,8.53
2018-08-30T18:30:32.490Z,9.10
2018-08-30T18:36:14.713Z,9.13
2018-08-30T18:38:43.352Z,8.83
2018-08-30T18:41:11.973Z,9.60
2018-08-30T18:43:40.542Z,8.20
2018-08-30T18:46:09.147Z,8.90
2018-08-30T18:48:37.841Z,8.60
2018-08-30T18:51:06.451Z,8.70
2018-08-30T18:53:35.017Z,8.40
2018-08-30T18:56:03.591Z,9.67
2018-08-30T18:58:32.106Z,8.60
2018-08-30T19:01:00.776Z,9.00
2018-08-30T19:03:29.454Z,9.17
2018-08-30T19:05:58.472Z,8.30
2018-08-30T19:08:27.138Z,8.93
2018-08-30T19:10:55.702Z,8.70
2018-08-30T19:13:24.271Z,9.10
2018-08-30T19:15:58.051Z,9.20
2018-08-30T19:18:31.925Z,8.60
2018-08-30T19:21:00.480Z,9.30
2018-08-30T19:23:30.342Z,9.50
2018-08-30T19:25:59.477Z,8.80
2018-08-30T19:28:39.142Z,9.20
2018-08-30T19:31:07.713Z,8.47
2018-08-30T19:33:36.331Z,11.00
2018-08-30T19:36:10.428Z,9.90
2018-08-30T19:38:38.990Z,9.73
2018-08-30T19:41:12.700Z,9.23
2018-08-30T19:43:41.227Z,9.50
2018-08-30T19:46:09.868Z,9.87
2018-08-30T19:49:42.726Z,8.90
2018-08-30T19:52:11.315Z,9.30
2018-08-30T19:54:39.878Z,9.30
2018-08-30T19:57:08.417Z,9.30
2018-08-30T19:59:36.987Z,9.10
2018-08-30T20:02:05.536Z,9.10
2018-08-30T20:04:34.129Z,10.20
2018-08-30T20:07:02.678Z,9.40
2018-08-30T20:09:31.310Z,9.37
2018-08-30T20:11:59.833Z,9.20
2018-08-30T20:14:28.656Z,9.30
2018-08-30T20:16:57.214Z,8.83
2018-08-30T20:19:25.790Z,9.33
2018-08-30T20:21:54.331Z,8.57
2018-08-30T20:24:22.867Z,9.47
2018-08-30T20:26:51.397Z,8.87
2018-08-30T20:29:20.051Z,10.20
2018-08-30T20:31:48.579Z,9.63
2018-08-30T20:34:17.113Z,8.70
2018-08-30T20:36:45.607Z,9.73
2018-08-30T20:39:14.179Z,9.93
2018-08-30T20:41:42.689Z,9.40
2018-08-30T20:44:11.262Z,10.47
2018-08-30T20:46:39.913Z,9.77
2018-08-30T20:49:08.416Z,9.50
2018-08-30T20:51:37.256Z,10.60
2018-08-30T20:54:05.962Z,9.60
2018-08-30T20:56:34.541Z,10.83
2018-08-30T20:59:03.084Z,10.10
2018-08-30T21:01:31.666Z,10.07
2018-08-30T21:04:00.206Z,9.20
2018-08-30T21:06:28.802Z,10.00
2018-08-30T21:08:57.329Z,9.90
2018-08-30T21:11:25.809Z,9.50
2018-08-30T21:13:54.372Z,9.27
2018-08-30T21:16:22.866Z,10.27
2018-08-30T21:18:51.413Z,10.33
2018-08-30T21:21:19.925Z,9.60
2018-08-30T21:23:48.671Z,10.10
2018-08-30T21:26:17.257Z,9.10
2018-08-30T21:28:45.805Z,9.57
2018-08-30T21:31:14.422Z,10.30
2018-08-30T21:33:42.944Z,9.23
2018-08-30T21:36:11.499Z,9.03
2018-08-30T21:38:39.994Z,9.27
2018-08-30T21:41:08.563Z,8.30
2018-08-30T21:43:37.072Z,8.43
2018-08-30T21:46:05.715Z,10.13
2018-08-30T21:48:34.328Z,10.50
2018-08-30T21:51:02.870Z,9.67
2018-08-30T21:53:31.358Z,9.03
2018-08-30T21:55:59.930Z,9.53
2018-08-30T21:58:28.495Z,9.70
2018-08-30T22:00:57.031Z,9.33
2018-08-30T22:03:25.550Z,10.63
2018-08-30T22:05:54.099Z,11.00
2018-08-30T22:08:22.726Z,10.20
2018-08-30T22:10:51.274Z,9.70
2018-08-30T22:13:19.816Z,9.60
2018-08-30T22:15:48.402Z,9.63
2018-08-30T22:18:16.984Z,9.83
2018-08-30T22:20:45.526Z,9.33
2018-08-30T22:23:14.030Z,9.63
2018-08-30T22:25:43.246Z,10.33
2018-08-30T22:28:11.829Z,10.87
2018-08-30T22:30:40.525Z,9.93
2018-08-30T22:33:09.132Z,10.13
2018-08-30T22:35:37.694Z,9.43
2018-08-30T22:38:06.316Z,9.60
2018-08-30T22:40:34.864Z,10.07
2018-08-30T22:43:03.444Z,10.17
2018-08-30T22:45:31.961Z,9.80
2018-08-30T22:48:00.459Z,11.57
2018-08-30T22:50:29.943Z,11.03
2018-08-30T22:52:58.654Z,10.80
2018-08-30T22:55:27.182Z,10.50
2018-08-30T22:57:55.730Z,10.07
2018-08-30T23:00:24.282Z,9.97
2018-08-30T23:02:52.811Z,8.50
2018-08-30T23:05:21.335Z,9.73
2018-08-30T23:07:49.983Z,10.70
2018-08-30T23:10:18.700Z,9.63
2018-08-30T23:12:47.350Z,10.67
2018-08-30T23:15:15.946Z,10.60
2018-08-30T23:17:44.467Z,11.20
2018-08-30T23:20:12.982Z,10.40
2018-08-30T23:22:41.693Z,9.37
2018-08-30T23:25:10.272Z,10.53
2018-08-30T23:27:39.782Z,10.70
2018-08-30T23:30:08.782Z,10.50
2018-08-30T23:32:37.358Z,9.90
2018-08-30T23:35:06.162Z,10.83
2018-08-30T23:37:34.720Z,11.03
2018-08-30T23:40:03.293Z,11.10
2018-08-30T23:42:31.816Z,10.40
2018-08-30T23:45:00.339Z,10.50
2018-08-30T23:47:29.002Z,10.00
2018-08-30T23:49:57.528Z,11.33
2018-08-30T23:52:26.046Z,11.07
2018-08-30T23:54:54.545Z,11.50
2018-08-30T23:57:23.110Z,10.97
